Terminal Aerodrome Forecast
Issued by NWS

Home | Current Version | Previous Version | Text Only | Print | Product List | Glossary On
Versions: 1 2 3 4 5 6 7 8 9 10 11 12 13 14 15 16 17 18 19 20 21 22 23 24 25 26 27 28 29 30 31 32 33
193
FTUS44 KFWD 200538
TAFAFW
TAF
KAFW 200538Z 2006/2106 17017KT P6SM VCSH OVC018
      TEMPO 2006/2007 OVC022
     FM201000 18015G25KT P6SM VCTS BKN012 OVC045CB
      TEMPO 2011/2015 3SM TSRA BKN020 OVC050CB
     FM201700 18020KT 6SM -SHRA BR VCTS OVC023CB
     FM202100 20013KT 4SM -SHRA BR SCT025 OVC045
     FM210100 36016KT P6SM VCSH BKN015=

USA.gov is the U.S. government's official web portal to all federal, state and local government web resources and services.